KCKI

Williamsburg Regional Airport

Kingstree, South Carolina, USA
METAR KCKI 271155Z AUTO 00000KT 7SM CLR 21/20 A3001 RMK AO2
Observed Flight Rules
May-27 @ 11:55 UTC (11 minutes ago) Visual Flight Rules
Visibility Clouds
7 miles
  • Clear skies
Temperatures Readings
Current 21°C / 70°F
Dewpoint 20°C / 68°F
Humidity 94%
Altimeter 30.01" Hg
Pressure 1016 hPa
Elevation 21
METAR KCKI 271155Z AUTO 00000KT 7SM CLR 21/20 A3001 RMK AO2
Observed Flight Rules
May-27 @ 11:55 UTC
(11 minutes ago)
VFR
Clouds
  • Clear skies
Temperature Dewpoint
21°C / 70°F 20°C / 68°F
Humidity Altimeter Pressure
94% 30.01" Hg 1016 hPa